CZUM/ZUM METAR and TAF weather

Enter ICAO airport designator
Station Type Date Time Source
CZUM METAR 2019/12/11 17:24 UTC NOAA

CZUM 111724Z AUTO 26013G23KT 9SM CLR M19/M25 A2974 RMK SLP119


Station Type Date Time Source
CZUM Decoded METAR 2019/12/11 17:24 UTC NOAA

Churchill Falls, Nfld., Canada (CZUM) 53-33N 064-06W 440M
Dec 11, 2019 - 12:24 PM EST / 2019.12.11 1724 UTC
Wind: from the W (260 degrees) at 15 MPH (13 KT) gusting to 26 MPH (23 KT):0
Visibility: 9 mile(s):0
Sky conditions: clear
Temperature: -2 F (-19 C)
Windchill: -22 F (-30 C):2
Dew Point: -13 F (-25 C)
Relative Humidity: 59%
Pressure (altimeter): 29.74 in. Hg (1007 hPa)
ob: CZUM 111724Z AUTO 26013G23KT 9SM CLR M19/M25 A2974 RMK SLP119
cycle: 17

Station Type Date Time Source
CZUM TAF 2019/12/11 14:39 UTC NOAA

TAF CZUM 111338Z 1114/1202 29010G20KT P6SM FEW020
TEMPO 1114/1119 3SM BLSN
BECMG 1114/1116 27020G30KT
FM111900 28015G25KT P6SM FEW020
BECMG 1121/1123 28010G20KT
RMK FCST BASED ON AUTO OBS. NXT FCST BY 112000Z

Example: see airport list